Time;durP1;ratioP1;P1;durP2;ratioP2;P2;SDS_P1;SDS_P2;PMS_P1;PMS_P2;Temp;Humidity;BMP_temperature;BMP_pressure;BME280_temperature;BME280_humidity;BME280_pressure;Samples;Min_cycle;Max_cycle;Signal;HPM_P1;HPM_P2
2022/04/12 00:01:05;;;;;;;0.93;0.60;;;;;;;3.75;74.11;99354.81;5031441;28;20040;-58
2022/04/12 00:03:30;;;;;;;1.15;0.70;;;;;;;3.76;74.06;99344.09;5031264;28;20025;-58
2022/04/12 00:05:56;;;;;;;1.98;0.80;;;;;;;3.83;73.63;99320.75;5031700;28;20030;-60
2022/04/12 00:08:22;;;;;;;0.68;0.63;;;;;;;3.90;73.71;99326.53;5031083;28;20033;-61
2022/04/12 00:10:49;;;;;;;0.95;0.77;;;;;;;3.62;73.54;99268.16;5031541;28;20025;-58
2022/04/12 00:13:17;;;;;;;0.60;0.60;;;;;;;3.93;73.52;99305.16;5031347;28;20049;-58
2022/04/12 00:15:43;;;;;;;0.55;0.55;;;;;;;4.02;72.96;99320.47;5031250;28;20104;-60
2022/04/12 00:20:53;;;;;;;0.68;0.68;;;;;;;4.00;72.54;99306.47;5031031;28;20069;-59
2022/04/12 00:23:19;;;;;;;0.98;0.80;;;;;;;4.05;73.42;99304.38;5030640;28;20113;-60
2022/04/12 00:25:45;;;;;;;0.57;0.57;;;;;;;4.04;73.02;99296.56;5031489;28;20033;-59
2022/04/12 00:28:12;;;;;;;2.22;0.60;;;;;;;4.05;72.75;99308.84;5031152;28;20037;-59
2022/04/12 00:30:37;;;;;;;0.98;0.77;;;;;;;4.10;72.31;99297.03;5033716;28;20027;-58
2022/04/12 00:33:03;;;;;;;0.45;0.40;;;;;;;4.16;72.64;99303.72;5050369;28;20079;-56
2022/04/12 00:35:29;;;;;;;0.50;0.50;;;;;;;4.12;72.50;99300.44;5050768;28;20462;-60
2022/04/12 00:37:56;;;;;;;0.73;0.73;;;;;;;4.04;72.52;99280.66;5050737;28;20500;-58
2022/04/12 00:40:26;;;;;;;1.67;0.70;;;;;;;4.05;72.63;99263.81;5049535;28;20029;-60
2022/04/12 00:42:53;;;;;;;0.95;0.70;;;;;;;4.07;72.83;99278.66;5050714;28;20037;-57
2022/04/12 00:45:19;;;;;;;1.05;0.70;;;;;;;4.07;73.33;99275.16;5050807;28;20477;-57
2022/04/12 00:47:44;;;;;;;1.60;0.70;;;;;;;4.02;73.34;99272.78;5050628;28;20397;-58
2022/04/12 00:50:11;;;;;;;1.10;0.80;;;;;;;4.11;72.64;99280.19;5050635;28;20029;-59
2022/04/12 00:52:44;;;;;;;0.90;0.50;;;;;;;4.13;72.88;99270.34;5049574;28;20112;-55
2022/04/12 00:55:10;;;;;;;1.42;0.80;;;;;;;4.12;72.31;99268.63;5052045;28;20025;-57
2022/04/12 00:57:37;;;;;;;0.77;0.77;;;;;;;4.11;72.10;99248.38;5054594;28;20044;-57
2022/04/12 01:00:05;;;;;;;1.23;0.85;;;;;;;4.03;72.45;99248.00;5054628;28;20035;-57
2022/04/12 01:02:34;;;;;;;1.17;0.80;;;;;;;4.09;73.15;99260.03;5054526;28;20033;-60
2022/04/12 01:05:01;;;;;;;1.05;0.80;;;;;;;4.07;73.07;99248.66;5054254;28;20021;-59
2022/04/12 01:07:27;;;;;;;1.42;0.90;;;;;;;4.08;72.81;99240.59;5054490;28;20060;-59
2022/04/12 01:09:53;;;;;;;1.33;0.73;;;;;;;4.10;72.55;99243.19;5054646;28;20060;-59
2022/04/12 01:12:21;;;;;;;1.88;0.80;;;;;;;4.07;72.39;99230.13;5054509;28;20060;-60
2022/04/12 01:14:47;;;;;;;0.82;0.70;;;;;;;4.08;72.68;99245.91;5054247;28;20024;-58
2022/04/12 01:17:13;;;;;;;0.85;0.70;;;;;;;4.13;72.97;99253.56;5054329;28;20039;-60
2022/04/12 01:19:38;;;;;;;0.80;0.80;;;;;;;3.93;72.95;99217.75;5054593;28;20037;-58
2022/04/12 01:22:06;;;;;;;1.00;0.90;;;;;;;4.18;72.16;99240.88;5054343;28;20044;-60
2022/04/12 01:24:33;;;;;;;0.77;0.70;;;;;;;4.13;72.18;99243.84;5053975;28;20029;-61
2022/04/12 01:26:59;;;;;;;2.80;0.80;;;;;;;4.16;72.65;99238.34;5054209;28;20489;-59
2022/04/12 01:29:25;;;;;;;2.88;1.30;;;;;;;4.22;72.29;99234.47;5053317;28;20021;-60
2022/04/12 01:31:51;;;;;;;1.40;1.30;;;;;;;4.16;72.72;99243.66;5053919;28;20374;-59
2022/04/12 01:34:17;;;;;;;1.38;1.10;;;;;;;4.14;72.17;99234.94;5053881;28;20090;-60
2022/04/12 01:36:42;;;;;;;1.40;1.00;;;;;;;4.20;72.60;99243.44;5053516;28;20366;-61
2022/04/12 01:39:08;;;;;;;1.63;1.20;;;;;;;4.23;72.12;99243.25;5053911;28;20135;-59
2022/04/12 01:41:33;;;;;;;2.42;1.10;;;;;;;4.25;72.44;99233.41;5053952;28;20396;-60
2022/04/12 01:43:59;;;;;;;1.63;1.20;;;;;;;4.29;72.21;99221.66;5053464;28;20504;-60
2022/04/12 01:46:24;;;;;;;1.33;1.10;;;;;;;4.29;72.36;99219.00;5053680;28;20024;-59
2022/04/12 01:48:50;;;;;;;1.83;1.25;;;;;;;4.30;72.50;99210.09;5053942;28;20037;-60
2022/04/12 01:51:16;;;;;;;1.88;1.40;;;;;;;4.30;71.73;99205.66;5053913;28;20029;-59
2022/04/12 01:53:42;;;;;;;4.22;1.30;;;;;;;4.05;72.20;99161.34;5053334;28;20488;-58
2022/04/12 01:56:08;;;;;;;1.48;1.38;;;;;;;4.27;72.46;99200.56;5053401;28;20071;-62
2022/04/12 01:58:35;;;;;;;1.30;1.15;;;;;;;4.28;72.15;99204.03;5053672;28;20068;-60
2022/04/12 02:01:02;;;;;;;1.50;1.40;;;;;;;4.33;72.59;99214.34;5053645;28;20044;-57
2022/04/12 02:03:28;;;;;;;1.60;1.40;;;;;;;4.34;72.31;99213.41;5052083;28;20116;-63
2022/04/12 02:05:54;;;;;;;1.98;1.10;;;;;;;4.34;72.10;99208.97;5052711;28;20043;-61
2022/04/12 02:08:21;;;;;;;1.40;1.30;;;;;;;4.38;71.91;99215.78;5053531;28;20350;-60
2022/04/12 02:10:47;;;;;;;1.48;1.30;;;;;;;4.33;71.88;99201.94;5053498;28;20033;-62
2022/04/12 02:13:12;;;;;;;1.80;1.70;;;;;;;4.35;71.71;99192.13;5053075;28;20043;-60
2022/04/12 02:15:38;;;;;;;2.28;1.50;;;;;;;4.35;72.26;99192.13;5053187;28;20385;-59
2022/04/12 02:18:03;;;;;;;2.25;1.50;;;;;;;4.41;71.96;99194.38;5052902;28;20088;-57
2022/04/12 02:20:29;;;;;;;1.40;1.30;;;;;;;4.37;72.22;99203.47;5053015;28;20437;-59
2022/04/12 02:22:54;;;;;;;1.55;1.45;;;;;;;4.36;71.88;99196.47;5052964;28;20453;-60
2022/04/12 02:25:20;;;;;;;4.43;1.60;;;;;;;4.38;71.79;99191.91;5053374;28;20036;-60
2022/04/12 02:27:45;;;;;;;1.42;1.33;;;;;;;4.41;71.94;99198.78;5052971;28;20029;-59
2022/04/12 02:30:12;;;;;;;2.33;1.30;;;;;;;4.42;72.11;99197.84;5052800;28;20140;-61
2022/04/12 02:32:39;;;;;;;1.67;1.58;;;;;;;4.37;71.58;99181.41;5052918;28;20052;-61
2022/04/12 02:35:05;;;;;;;2.63;1.50;;;;;;;4.32;71.48;99168.44;5052702;28;20392;-60
2022/04/12 02:37:30;;;;;;;1.58;1.48;;;;;;;4.31;72.31;99164.09;5052782;28;20124;-60
2022/04/12 02:39:56;;;;;;;1.90;1.67;;;;;;;4.27;72.33;99162.59;5053002;28;20116;-62
2022/04/12 02:42:21;;;;;;;2.95;1.75;;;;;;;4.33;72.62;99188.69;5053055;28;20032;-61
2022/04/12 02:44:47;;;;;;;3.63;1.52;;;;;;;4.36;72.57;99190.31;5052537;28;20072;-60
2022/04/12 02:47:12;;;;;;;2.63;1.92;;;;;;;4.36;71.54;99192.94;5052632;28;20024;-61
2022/04/12 02:49:38;;;;;;;2.13;1.67;;;;;;;4.47;71.60;99184.31;5052661;28;20033;-60
2022/04/12 02:52:04;;;;;;;3.83;1.70;;;;;;;4.42;71.85;99189.91;5052262;28;20087;-60
2022/04/12 02:54:29;;;;;;;3.15;2.03;;;;;;;4.47;70.72;99190.47;5052305;28;20021;-60
2022/04/12 02:56:55;;;;;;;2.22;1.90;;;;;;;4.32;71.60;99192.28;5052432;28;20110;-60
2022/04/12 02:59:20;;;;;;;2.15;1.85;;;;;;;4.06;71.88;99136.53;5052332;28;20450;-62
2022/04/12 03:01:46;;;;;;;3.50;1.73;;;;;;;4.29;72.28;99190.72;5052329;28;20044;-59
2022/04/12 03:04:11;;;;;;;2.10;1.73;;;;;;;4.26;72.33;99176.78;5052182;28;20025;-60
2022/04/12 03:06:37;;;;;;;1.83;1.73;;;;;;;4.44;72.08;99188.84;5052436;28;20041;-58
2022/04/12 03:09:03;;;;;;;2.65;1.90;;;;;;;4.40;72.37;99197.09;5052100;28;20086;-58
2022/04/12 03:11:28;;;;;;;3.35;1.98;;;;;;;4.34;72.78;99189.56;5042849;28;20064;-58
2022/04/12 03:13:54;;;;;;;2.38;2.00;;;;;;;4.35;72.40;99193.91;5035137;28;20032;-58
2022/04/12 03:16:19;;;;;;;1.85;1.75;;;;;;;4.37;72.52;99187.56;5032327;28;20112;-60
2022/04/12 03:18:45;;;;;;;2.90;2.13;;;;;;;4.47;73.16;99202.84;5030638;28;20033;-57
2022/04/12 03:21:10;;;;;;;2.83;1.85;;;;;;;4.54;72.27;99204.16;5031863;28;20032;-59
2022/04/12 03:23:36;;;;;;;2.63;2.33;;;;;;;4.57;72.29;99203.94;5032224;28;20053;-57
2022/04/12 03:26:03;;;;;;;2.78;2.35;;;;;;;4.62;71.98;99201.88;5032122;28;20032;-58
2022/04/12 03:28:29;;;;;;;3.03;2.67;;;;;;;4.61;71.97;99194.84;5032053;28;20067;-60
2022/04/12 03:30:54;;;;;;;3.28;2.70;;;;;;;4.58;72.65;99181.78;5031596;28;20067;-60
2022/04/12 03:33:20;;;;;;;3.33;2.40;;;;;;;4.57;71.75;99170.34;5031886;28;20060;-61
2022/04/12 03:35:45;;;;;;;3.22;2.35;;;;;;;4.57;72.30;99173.00;5031858;28;20157;-60
2022/04/12 03:38:13;;;;;;;3.05;2.75;;;;;;;4.63;72.27;99166.44;5031261;28;20033;-60
2022/04/12 03:40:38;;;;;;;2.80;2.47;;;;;;;4.68;72.42;99177.59;5031564;28;20123;-60
2022/04/12 03:43:05;;;;;;;4.05;2.95;;;;;;;4.71;72.15;99189.81;5031711;28;20061;-60
2022/04/12 03:45:32;;;;;;;3.00;2.70;;;;;;;4.83;71.49;99182.81;5031623;28;20461;-61
2022/04/12 03:47:58;;;;;;;4.15;3.20;;;;;;;4.62;70.96;99140.00;5031541;28;20102;-56
2022/04/12 03:50:24;;;;;;;3.95;3.08;;;;;;;4.93;70.90;99181.25;5031700;28;20026;-57
2022/04/12 03:52:50;;;;;;;5.20;2.97;;;;;;;4.58;71.45;99142.88;5031080;28;20049;-61
2022/04/12 03:55:30;;;;;;;3.70;3.00;;;;;;;4.86;71.95;99187.91;5031575;28;20048;-61
2022/04/12 03:57:57;;;;;;;4.35;3.75;;;;;;;4.98;71.78;99197.69;5031617;28;20090;-60
2022/04/12 04:00:23;;;;;;;5.55;3.00;;;;;;;5.03;71.71;99195.56;5031679;28;20037;-61
2022/04/12 04:02:48;;;;;;;4.50;3.45;;;;;;;4.81;71.13;99158.19;5031273;28;20021;-61
2022/04/12 04:05:14;;;;;;;4.63;3.47;;;;;;;5.04;71.53;99209.69;5030923;28;20087;-62
2022/04/12 04:07:39;;;;;;;5.57;3.88;;;;;;;5.03;71.69;99202.69;5031000;28;20417;-61
2022/04/12 04:10:05;;;;;;;5.03;3.53;;;;;;;4.89;70.99;99166.50;5031008;28;20044;-59
2022/04/12 04:12:31;;;;;;;5.18;3.95;;;;;;;5.14;71.56;99208.09;5030808;28;20033;-63
2022/04/12 04:14:56;;;;;;;5.25;3.70;;;;;;;5.06;71.12;99193.66;5031109;28;20029;-68
2022/04/12 04:17:22;;;;;;;4.60;3.80;;;;;;;5.13;70.82;99197.63;5030925;28;20108;-68
2022/04/12 04:19:47;;;;;;;6.30;4.55;;;;;;;5.15;71.10;99203.66;5030887;28;20049;-69
2022/04/12 04:22:13;;;;;;;6.70;4.15;;;;;;;5.15;71.35;99207.16;5030770;28;20033;-69
2022/04/12 04:24:38;;;;;;;6.35;4.53;;;;;;;5.14;71.55;99209.94;5030851;28;20125;-68
2022/04/12 04:27:05;;;;;;;6.10;4.57;;;;;;;5.28;70.63;99216.94;5037995;28;20143;-68
2022/04/12 04:29:33;;;;;;;5.82;4.85;;;;;;;5.18;71.42;99216.72;5050172;28;20029;-68
2022/04/12 04:31:58;;;;;;;6.07;4.80;;;;;;;5.23;70.91;99219.06;5049683;28;20044;-66
2022/04/12 04:34:24;;;;;;;7.07;4.70;;;;;;;5.12;71.59;99201.22;5050944;28;20033;-68
2022/04/12 04:36:50;;;;;;;7.05;5.00;;;;;;;5.16;71.47;99205.38;5050542;28;20037;-67
2022/04/12 04:39:16;;;;;;;7.60;5.25;;;;;;;5.12;70.01;99156.13;5050800;28;20040;-66
2022/04/12 04:41:41;;;;;;;8.68;6.07;;;;;;;5.22;70.71;99199.63;5046092;28;20139;-67
2022/04/12 04:44:07;;;;;;;6.35;5.40;;;;;;;5.23;70.64;99201.31;5049391;28;20178;-65
2022/04/12 04:46:33;;;;;;;9.15;6.28;;;;;;;5.25;70.50;99193.28;5050587;28;20044;-64
2022/04/12 04:48:59;;;;;;;10.80;6.47;;;;;;;5.24;70.40;99184.44;5049147;28;20044;-65
2022/04/12 04:51:25;;;;;;;10.38;6.63;;;;;;;5.16;71.48;99205.38;5049450;28;20033;-66
2022/04/12 04:53:57;;;;;;;8.10;5.70;;;;;;;5.27;71.36;99197.50;5050399;28;20033;-64
2022/04/12 04:56:24;;;;;;;8.90;6.03;;;;;;;5.26;71.07;99203.75;5050201;28;20041;-66
2022/04/12 04:58:49;;;;;;;9.05;6.13;;;;;;;5.29;71.53;99206.19;5032668;28;20025;-63
2022/04/12 05:01:15;;;;;;;10.82;6.30;;;;;;;5.45;71.14;99199.84;5050710;28;20097;-65
2022/04/12 05:03:40;;;;;;;11.27;7.93;;;;;;;5.49;69.85;99190.69;5050401;28;20104;-65
2022/04/12 05:06:05;;;;;;;9.93;7.30;;;;;;;5.48;70.57;99198.78;5050203;28;20437;-64
2022/04/12 05:08:31;;;;;;;8.02;5.97;;;;;;;5.61;69.80;99183.69;5050293;28;20025;-63
2022/04/12 05:10:56;;;;;;;11.82;7.95;;;;;;;5.24;70.72;99133.19;5050471;28;20510;-65
2022/04/12 05:13:22;;;;;;;11.60;8.10;;;;;;;5.53;69.58;99155.00;5050335;28;20171;-64
2022/04/12 05:15:47;;;;;;;11.38;7.88;;;;;;;5.53;70.22;99173.59;5049947;28;20025;-65
2022/04/12 05:18:13;;;;;;;14.07;8.80;;;;;;;5.64;70.23;99185.28;5049028;28;20124;-66
2022/04/12 05:20:38;;;;;;;11.18;8.23;;;;;;;5.63;70.32;99188.91;5049233;28;20040;-65
2022/04/12 05:23:04;;;;;;;13.60;8.85;;;;;;;5.61;70.98;99170.41;5049110;28;20055;-64
2022/04/12 05:25:29;;;;;;;12.93;9.60;;;;;;;5.67;70.22;99177.09;5050309;28;20060;-66
2022/04/12 05:27:55;;;;;;;13.73;9.38;;;;;;;5.72;70.82;99186.44;5048964;28;20029;-64
2022/04/12 05:30:21;;;;;;;13.93;9.27;;;;;;;5.87;70.06;99203.09;5050282;28;20112;-64
2022/04/12 05:32:47;;;;;;;12.27;8.32;;;;;;;6.02;69.13;99201.19;5048664;28;20082;-65
2022/04/12 05:35:13;;;;;;;15.68;8.75;;;;;;;5.71;69.23;99163.50;5048589;28;20449;-64
2022/04/12 05:37:46;;;;;;;14.27;9.30;;;;;;;5.89;70.06;99214.47;5050331;28;20041;-65
2022/04/12 05:40:12;;;;;;;12.07;6.97;;;;;;;6.22;68.15;99219.31;5050224;28;20033;-64
2022/04/12 05:42:39;;;;;;;13.57;8.20;;;;;;;6.13;68.23;99213.69;5052540;28;20079;-65
2022/04/12 05:45:09;;;;;;;13.70;8.57;;;;;;;5.93;68.62;99208.94;5053805;28;20028;-65
2022/04/12 05:47:51;;;;;;;10.32;7.03;;;;;;;5.78;70.23;99203.72;5053893;28;20242;-63
2022/04/12 05:50:21;;;;;;;12.00;8.63;;;;;;;5.73;70.49;99203.22;5053881;28;20025;-65
2022/04/12 05:52:48;;;;;;;15.27;9.30;;;;;;;5.88;70.03;99199.47;5053381;28;20074;-66
2022/04/12 05:55:15;;;;;;;13.38;9.02;;;;;;;6.08;70.37;99196.38;5052079;28;20461;-65
2022/04/12 05:57:55;;;;;;;11.85;7.05;;;;;;;6.43;69.31;99190.31;5053651;28;20036;-66
2022/04/12 06:00:22;;;;;;;13.45;8.80;;;;;;;6.28;68.99;99163.06;5053664;28;20476;-65
2022/04/12 06:02:49;;;;;;;14.27;8.93;;;;;;;6.62;67.87;99187.13;5053207;28;20033;-65
2022/04/12 06:05:15;;;;;;;13.00;9.13;;;;;;;6.80;67.79;99203.53;5051776;28;20033;-64
2022/04/12 06:07:42;;;;;;;10.20;7.03;;;;;;;7.05;65.80;99196.34;5053410;28;20029;-64
2022/04/12 06:10:10;;;;;;;12.13;8.45;;;;;;;6.85;66.65;99196.03;5051749;28;20029;-65
2022/04/12 06:12:37;;;;;;;14.15;8.00;;;;;;;6.71;66.94;99182.94;5053243;28;20550;-65
2022/04/12 06:15:04;;;;;;;13.98;9.45;;;;;;;6.54;68.31;99185.03;5052243;28;20032;-65
2022/04/12 06:17:31;;;;;;;13.02;9.48;;;;;;;6.48;68.79;99193.47;5051783;28;20067;-65
2022/04/12 06:20:04;;;;;;;14.88;9.52;;;;;;;6.56;68.62;99198.25;5053299;28;20465;-66
2022/04/12 06:22:30;;;;;;;14.52;8.85;;;;;;;6.35;68.50;99148.34;5053724;28;20047;-65
2022/04/12 06:24:56;;;;;;;13.32;9.18;;;;;;;6.69;68.08;99187.53;5053037;28;20060;-65
2022/04/12 06:27:32;;;;;;;9.65;5.90;;;;;;;6.97;67.39;99190.75;5053053;28;20048;-66
2022/04/12 06:29:58;;;;;;;13.63;8.52;;;;;;;6.88;67.32;99192.31;5052738;28;20499;-65
2022/04/12 06:32:26;;;;;;;12.73;8.88;;;;;;;6.67;68.25;99179.66;5052522;28;20141;-63
2022/04/12 06:34:51;;;;;;;13.85;8.40;;;;;;;6.85;67.96;99201.34;5051687;28;20392;-55
2022/04/12 06:37:17;;;;;;;17.60;8.20;;;;;;;6.89;67.76;99186.03;5051326;28;20122;-69
2022/04/12 06:39:42;;;;;;;17.55;9.27;;;;;;;6.95;67.83;99190.03;5051480;28;20526;-66
2022/04/12 06:42:08;;;;;;;15.48;9.27;;;;;;;7.08;67.97;99200.59;5051052;28;20029;-64
2022/04/12 06:44:34;;;;;;;14.32;8.82;;;;;;;7.17;67.79;99191.91;5052275;28;20028;-66
2022/04/12 06:47:00;;;;;;;13.80;9.02;;;;;;;7.39;67.06;99198.22;5051827;28;20036;-65
2022/04/12 06:49:25;;;;;;;13.38;8.68;;;;;;;7.64;66.42;99209.63;5049513;28;20045;-63
2022/04/12 06:51:51;;;;;;;18.90;9.82;;;;;;;7.59;65.93;99173.56;5048827;28;20441;-61
2022/04/12 06:54:16;;;;;;;13.52;9.02;;;;;;;7.69;65.03;99168.34;5051882;28;20032;-63
2022/04/12 06:56:42;;;;;;;19.40;9.48;;;;;;;7.97;65.22;99208.78;5051308;28;20362;-65
2022/04/12 06:59:07;;;;;;;14.05;7.88;;;;;;;7.98;63.54;99164.34;5050817;28;20211;-63
2022/04/12 07:01:33;;;;;;;15.77;9.85;;;;;;;7.96;63.92;99204.44;5051637;28;20051;-62
2022/04/12 07:03:58;;;;;;;16.55;10.13;;;;;;;7.54;66.05;99205.03;5051891;28;20136;-65
2022/04/12 07:06:24;;;;;;;14.82;10.18;;;;;;;7.46;67.16;99212.75;5046147;28;20056;-61
2022/04/12 07:08:49;;;;;;;15.35;9.18;;;;;;;7.63;66.15;99214.13;5032937;28;20034;-58
2022/04/12 07:11:15;;;;;;;15.43;10.23;;;;;;;7.63;66.68;99205.28;5051767;28;20033;-66
2022/04/12 07:13:40;;;;;;;15.35;9.98;;;;;;;7.66;66.42;99213.03;5050813;28;20094;-61
2022/04/12 07:16:06;;;;;;;15.25;10.23;;;;;;;7.67;66.18;99212.06;5052627;28;20040;-64
2022/04/12 07:18:31;;;;;;;15.27;10.32;;;;;;;7.68;66.30;99208.41;5051783;28;20123;-62
2022/04/12 07:20:57;;;;;;;17.58;11.05;;;;;;;7.73;66.24;99212.44;5049279;28;20029;-63
2022/04/12 07:23:22;;;;;;;18.75;10.23;;;;;;;7.74;66.20;99207.97;5032216;28;20032;-62
2022/04/12 07:25:49;;;;;;;16.60;10.32;;;;;;;7.46;66.06;99167.47;5037032;28;20017;-68
2022/04/12 07:28:14;;;;;;;20.38;10.60;;;;;;;7.65;66.53;99220.19;5050154;28;20446;-66
2022/04/12 07:30:40;;;;;;;16.75;10.77;;;;;;;7.60;66.97;99207.22;5051441;28;20029;-61
2022/04/12 07:33:05;;;;;;;18.98;10.20;;;;;;;7.64;66.27;99205.16;5050388;28;20045;-63
2022/04/12 07:35:31;;;;;;;19.02;12.10;;;;;;;7.70;65.94;99211.81;5047281;28;20037;-62
2022/04/12 07:37:56;;;;;;;17.80;11.65;;;;;;;7.60;66.96;99220.53;5046460;28;20033;-60
2022/04/12 07:40:22;;;;;;;20.20;11.27;;;;;;;7.71;67.34;99227.69;5049494;28;20049;-63
2022/04/12 07:42:48;;;;;;;18.20;11.48;;;;;;;7.83;66.48;99225.00;5033583;28;20033;-63
2022/04/12 07:45:13;;;;;;;20.40;11.50;;;;;;;7.65;65.77;99184.69;5051886;28;20040;-62
2022/04/12 07:47:39;;;;;;;17.63;10.77;;;;;;;7.84;65.96;99208.91;5050575;28;20420;-63
2022/04/12 07:50:05;;;;;;;19.05;11.88;;;;;;;7.89;66.16;99222.72;5049839;28;20068;-63
2022/04/12 07:52:30;;;;;;;21.88;11.43;;;;;;;7.68;65.93;99182.63;5041706;28;20037;-62
2022/04/12 07:54:56;;;;;;;21.05;12.73;;;;;;;7.92;65.99;99226.09;5050600;28;20376;-61
2022/04/12 07:57:22;;;;;;;23.38;12.68;;;;;;;7.98;65.82;99230.97;5032875;28;20047;-62
2022/04/12 07:59:47;;;;;;;24.60;12.70;;;;;;;7.74;65.72;99191.97;5050748;28;20035;-64
2022/04/12 08:02:13;;;;;;;25.55;14.20;;;;;;;7.98;66.22;99226.47;5049417;28;20380;-63
2022/04/12 08:04:41;;;;;;;24.88;13.95;;;;;;;8.10;66.06;99240.66;5050159;28;20033;-62
2022/04/12 08:07:07;;;;;;;23.17;14.20;;;;;;;8.12;65.50;99229.88;5045060;28;20104;-62
2022/04/12 08:09:32;;;;;;;25.52;15.45;;;;;;;8.28;65.45;99232.16;5030843;28;20108;-61
2022/04/12 08:11:58;;;;;;;22.00;14.40;;;;;;;8.38;65.42;99251.75;5029642;28;20598;-63
2022/04/12 08:14:23;;;;;;;25.42;15.20;;;;;;;8.54;64.72;99243.38;5030885;28;20040;-62
2022/04/12 08:16:49;;;;;;;25.83;15.20;;;;;;;8.74;64.26;99231.09;5030479;28;20124;-61
2022/04/12 08:19:14;;;;;;;25.58;14.55;;;;;;;8.85;63.60;99226.66;5031253;28;20080;-60
2022/04/12 08:21:40;;;;;;;25.55;15.35;;;;;;;9.09;63.16;99238.94;5030107;28;20496;-63
2022/04/12 08:24:07;;;;;;;23.05;15.02;;;;;;;9.18;62.92;99224.84;5030856;28;20449;-62
2022/04/12 08:26:32;;;;;;;20.85;14.60;;;;;;;9.16;62.56;99221.41;5030535;28;20116;-62
2022/04/12 08:28:58;;;;;;;23.45;15.15;;;;;;;9.16;62.28;99230.28;5035575;28;20123;-62
2022/04/12 08:31:24;;;;;;;28.67;15.27;;;;;;;9.12;62.71;99220.00;5048692;28;20128;-62
2022/04/12 08:33:50;;;;;;;28.95;16.02;;;;;;;9.15;62.52;99225.06;5049240;28;20481;-62
2022/04/12 08:36:16;;;;;;;26.55;16.02;;;;;;;9.18;62.42;99231.00;5048507;28;20430;-63
2022/04/12 08:38:45;;;;;;;26.23;15.32;;;;;;;9.23;62.64;99217.28;5039890;28;20032;-63
2022/04/12 08:41:13;;;;;;;30.95;16.15;;;;;;;9.30;62.88;99223.78;5046728;28;20041;-64
2022/04/12 08:43:40;;;;;;;27.17;16.02;;;;;;;9.38;62.42;99225.81;5029350;28;20082;-64
2022/04/12 08:46:07;;;;;;;28.33;16.70;;;;;;;9.42;62.12;99223.72;5038828;28;20029;-62
2022/04/12 08:48:34;;;;;;;28.77;17.17;;;;;;;9.38;61.76;99215.13;5049244;28;20040;-62
2022/04/12 08:51:01;;;;;;;28.70;17.42;;;;;;;9.32;62.30;99226.34;5049864;28;20025;-64
2022/04/12 08:53:28;;;;;;;25.60;16.63;;;;;;;9.32;62.62;99232.50;5049564;28;20033;-61
2022/04/12 08:55:55;;;;;;;28.50;17.08;;;;;;;9.13;62.20;99190.50;5048057;28;20503;-64
2022/04/12 08:58:21;;;;;;;29.55;17.13;;;;;;;9.24;62.74;99220.78;5049993;28;20029;-64
2022/04/12 09:00:47;;;;;;;30.75;18.48;;;;;;;9.21;62.92;99221.03;5048567;28;20029;-63
2022/04/12 09:03:16;;;;;;;32.35;17.92;;;;;;;9.15;62.79;99219.72;5049920;28;20029;-64
2022/04/12 09:05:42;;;;;;;30.75;17.67;;;;;;;9.13;62.86;99224.34;5048408;28;20082;-62
2022/04/12 09:08:27;;;;;;;28.42;17.88;;;;;;;9.22;63.11;99220.91;5049611;28;20040;-63
2022/04/12 09:10:57;;;;;;;28.90;16.98;;;;;;;9.14;63.50;99215.38;5050385;28;20021;-63
2022/04/12 09:13:23;;;;;;;27.75;17.83;;;;;;;9.13;62.95;99217.19;5049692;28;20112;-60
2022/04/12 09:15:49;;;;;;;30.60;16.85;;;;;;;9.16;63.08;99226.75;5050814;28;20025;-64
2022/04/12 09:18:33;;;;;;;30.88;16.77;;;;;;;9.33;63.29;99234.19;5053936;28;20048;-64
2022/04/12 09:21:30;;;;;;;24.90;16.83;;;;;;;9.53;62.96;99239.66;5038332;28;20272;-63
2022/04/12 09:23:56;;;;;;;29.05;16.65;;;;;;;9.59;61.65;99244.47;5047486;28;20044;-61
2022/04/12 09:26:22;;;;;;;26.98;17.08;;;;;;;9.71;61.30;99237.22;5047288;28;20028;-62
2022/04/12 09:28:47;;;;;;;29.02;16.58;;;;;;;9.76;60.99;99232.31;5053613;28;20549;-64
2022/04/12 09:31:17;;;;;;;27.42;17.63;;;;;;;9.97;61.14;99242.13;5052334;28;20481;-62
2022/04/12 09:33:45;;;;;;;31.73;18.30;;;;;;;9.95;60.94;99248.63;5053563;28;20033;-62
2022/04/12 09:36:11;;;;;;;29.65;18.35;;;;;;;9.85;61.08;99237.88;5053322;28;20453;-63
2022/04/12 09:38:39;;;;;;;29.08;16.65;;;;;;;9.85;61.55;99254.75;5053178;28;20465;-63
2022/04/12 09:41:25;;;;;;;30.80;17.17;;;;;;;10.03;61.38;99240.75;5054006;28;20033;-65
2022/04/12 09:44:12;;;;;;;29.55;16.48;;;;;;;10.12;60.47;99245.28;5052204;28;20037;-65
2022/04/12 09:46:39;;;;;;;25.02;15.95;;;;;;;10.01;60.08;99206.13;5053767;28;20104;-65
2022/04/12 09:49:06;;;;;;;27.25;17.45;;;;;;;10.20;59.93;99253.50;5053694;28;20033;-68
2022/04/12 09:51:36;;;;;;;25.20;16.52;;;;;;;10.11;60.45;99251.63;5053423;28;20079;-64
2022/04/12 09:54:09;;;;;;;25.83;16.17;;;;;;;10.14;60.68;99263.88;5039748;28;20044;-65
2022/04/12 09:56:36;;;;;;;23.48;15.05;;;;;;;10.26;60.20;99259.28;5031706;28;20418;-64
2022/04/12 09:59:08;;;;;;;28.45;16.40;;;;;;;10.37;60.21;99251.16;5032834;28;20038;-66
2022/04/12 10:01:39;;;;;;;26.90;16.67;;;;;;;10.37;59.94;99258.31;5036161;28;20057;-63
2022/04/12 10:04:08;;;;;;;26.13;16.67;;;;;;;10.29;60.14;99248.28;5047368;28;20068;-68
2022/04/12 10:06:39;;;;;;;26.75;17.23;;;;;;;10.40;60.18;99266.97;5052968;28;20029;-63
2022/04/12 10:09:07;;;;;;;22.67;15.20;;;;;;;10.36;59.89;99249.44;5052813;28;20039;-64
2022/04/12 10:11:33;;;;;;;23.13;15.57;;;;;;;10.48;60.17;99253.75;5034767;28;20028;-62
2022/04/12 10:14:01;;;;;;;29.98;17.08;;;;;;;10.75;59.45;99262.94;5052678;28;20106;-63
2022/04/12 10:16:27;;;;;;;25.40;15.73;;;;;;;10.97;58.75;99260.13;5052603;28;20142;-64
2022/04/12 10:18:54;;;;;;;25.27;15.90;;;;;;;11.07;58.07;99244.91;5051689;28;20029;-62
2022/04/12 10:21:22;;;;;;;26.10;16.50;;;;;;;11.15;57.90;99255.75;5051425;28;20118;-61
2022/04/12 10:23:51;;;;;;;25.17;16.05;;;;;;;11.20;58.01;99266.06;5052297;28;20495;-61
2022/04/12 10:26:21;;;;;;;26.38;15.85;;;;;;;11.09;58.13;99232.22;5050619;28;20041;-63
2022/04/12 10:28:52;;;;;;;27.90;16.70;;;;;;;11.26;57.75;99265.50;5051931;28;20366;-65
2022/04/12 10:31:20;;;;;;;23.02;15.63;;;;;;;11.03;58.09;99273.81;5040640;28;20104;-62
2022/04/12 10:34:01;;;;;;;21.63;14.85;;;;;;;10.82;58.93;99255.19;5032112;28;20037;-63
2022/04/12 10:36:55;;;;;;;20.23;14.38;;;;;;;11.12;58.87;99273.97;5030980;28;20493;-62
2022/04/12 10:39:28;;;;;;;22.58;14.73;;;;;;;11.09;58.36;99279.59;5032111;28;20041;-62
2022/04/12 10:41:55;;;;;;;22.73;14.68;;;;;;;11.12;58.23;99276.66;5032637;28;20034;-62
2022/04/12 10:44:21;;;;;;;23.50;14.23;;;;;;;11.08;58.07;99284.13;5031067;28;20129;-63
2022/04/12 10:46:51;;;;;;;20.48;13.95;;;;;;;11.05;58.28;99289.75;5032670;28;20091;-62
2022/04/12 10:49:20;;;;;;;23.80;14.98;;;;;;;10.55;58.56;99247.81;5032471;28;20033;-63
2022/04/12 10:51:56;;;;;;;25.63;14.85;;;;;;;10.83;59.71;99280.13;5032288;28;20032;-62
2022/04/12 10:54:35;;;;;;;33.00;14.77;;;;;;;10.60;59.64;99233.06;5032470;28;20033;-62
2022/04/12 10:57:16;;;;;;;23.45;14.52;;;;;;;11.07;59.25;99271.72;5031400;28;20923;-63
2022/04/12 10:59:46;;;;;;;21.10;13.77;;;;;;;10.96;58.59;99228.97;5031806;28;20470;-61
2022/04/12 11:02:12;;;;;;;21.95;14.27;;;;;;;11.17;58.42;99259.16;5032209;28;20028;-63
2022/04/12 11:04:38;;;;;;;22.27;13.57;;;;;;;11.14;58.23;99248.72;5032990;28;20048;-64
2022/04/12 11:07:06;;;;;;;20.40;13.13;;;;;;;11.22;57.99;99260.56;5032639;28;20041;-62
2022/04/12 11:09:32;;;;;;;22.20;13.50;;;;;;;10.99;58.33;99263.53;5032098;28;20865;-63
2022/04/12 11:12:01;;;;;;;23.67;12.63;;;;;;;10.79;58.91;99259.97;5031926;28;20059;-62
2022/04/12 11:14:32;;;;;;;19.85;12.57;;;;;;;10.72;58.98;99255.19;5032510;28;20087;-62
2022/04/12 11:17:12;;;;;;;21.05;12.38;;;;;;;10.46;59.67;99245.00;5032296;28;20037;-63
2022/04/12 11:19:47;;;;;;;19.48;12.00;;;;;;;10.24;60.04;99239.84;5032237;28;20033;-64
2022/04/12 11:22:14;;;;;;;20.20;11.77;;;;;;;10.33;60.53;99263.09;5031934;28;20037;-63
2022/04/12 11:24:40;;;;;;;20.40;11.70;;;;;;;10.25;60.69;99263.81;5032466;28;20033;-65
2022/04/12 11:27:08;;;;;;;20.33;12.05;;;;;;;10.20;61.07;99250.81;5032363;28;20484;-64
2022/04/12 11:29:35;;;;;;;23.13;11.60;;;;;;;10.15;61.19;99261.09;5030403;28;20544;-63
2022/04/12 11:32:01;;;;;;;19.88;11.90;;;;;;;10.07;61.47;99247.53;5030368;28;20454;-62
2022/04/12 11:34:29;;;;;;;20.45;11.65;;;;;;;9.99;61.92;99247.34;5032040;28;20037;-63